Time;durP1;ratioP1;P1;durP2;ratioP2;P2;SDS_P1;SDS_P2;PMS_P1;PMS_P2;Temp;Humidity;BMP_temperature;BMP_pressure;BME280_temperature;BME280_humidity;BME280_pressure;Samples;Min_cycle;Max_cycle;Signal;HPM_P1;HPM_P2
2021/09/15 00:00:31;;;;;;;13.93;12.52;;;;;;;;;;5013089;28;20470;-59
2021/09/15 00:02:56;;;;;;;13.15;11.60;;;;;;;;;;5014165;28;20501;-60
2021/09/15 00:05:21;;;;;;;15.50;11.52;;;;;;;;;;5015136;28;20436;-61
2021/09/15 00:07:47;;;;;;;14.52;13.13;;;;;;;;;;5015421;28;20030;-61
2021/09/15 00:10:12;;;;;;;14.50;12.38;;;;;;;;;;5013450;28;20031;-60
2021/09/15 00:12:37;;;;;;;14.43;13.05;;;;;;;;;;5014153;28;20026;-62
2021/09/15 00:15:03;;;;;;;14.60;13.10;;;;;;;;;;5013494;28;20025;-61
2021/09/15 00:17:28;;;;;;;15.43;13.90;;;;;;;;;;5014187;28;20017;-60
2021/09/15 00:19:53;;;;;;;17.58;13.30;;;;;;;;;;5015058;28;20029;-61
2021/09/15 00:22:18;;;;;;;16.55;13.68;;;;;;;;;;5014226;28;20358;-61
2021/09/15 00:24:44;;;;;;;14.52;13.07;;;;;;;;;;5013756;28;20018;-63
2021/09/15 00:27:09;;;;;;;15.25;13.65;;;;;;;;;;5014343;28;20381;-61
2021/09/15 00:29:34;;;;;;;19.52;15.20;;;;;;;;;;5015153;28;20026;-62
2021/09/15 00:31:59;;;;;;;16.67;14.95;;;;;;;;;;5013497;28;20046;-61
2021/09/15 00:34:29;;;;;;;14.30;12.73;;;;;;;;;;5015598;28;20383;-60
2021/09/15 00:36:55;;;;;;;17.85;13.98;;;;;;;;;;5015037;28;20075;-63
2021/09/15 00:39:20;;;;;;;14.88;13.32;;;;;;;;;;5018410;28;20709;-63
2021/09/15 00:41:45;;;;;;;15.85;14.18;;;;;;;;;;5016226;28;20041;-62
2021/09/15 00:44:11;;;;;;;16.48;14.73;;;;;;;;;;5017377;28;20024;-64
2021/09/15 00:46:37;;;;;;;16.70;13.68;;;;;;;;;;5016473;28;20092;-64
2021/09/15 00:49:03;;;;;;;15.70;13.57;;;;;;;;;;5016955;28;20029;-63
2021/09/15 00:51:33;;;;;;;15.60;13.32;;;;;;;;;;5014403;28;20071;-62
2021/09/15 00:53:58;;;;;;;15.38;13.80;;;;;;;;;;5015245;28;20088;-62
2021/09/15 00:56:25;;;;;;;16.92;13.32;;;;;;;;;;5014621;28;20494;-63
2021/09/15 00:58:50;;;;;;;16.13;13.52;;;;;;;;;;5012530;28;20347;-62
2021/09/15 01:01:15;;;;;;;16.08;14.43;;;;;;;;;;5013433;28;20052;-62
2021/09/15 01:03:40;;;;;;;17.55;13.50;;;;;;;;;;5014542;28;20019;-62
2021/09/15 01:06:06;;;;;;;14.35;12.82;;;;;;;;;;5017355;28;20527;-62
2021/09/15 01:08:32;;;;;;;16.85;14.00;;;;;;;;;;5015117;28;20029;-63
2021/09/15 01:10:58;;;;;;;15.73;14.13;;;;;;;;;;5022196;28;20113;-60
2021/09/15 01:13:24;;;;;;;18.08;14.00;;;;;;;;;;5014207;28;20026;-62
2021/09/15 01:15:49;;;;;;;18.00;14.35;;;;;;;;;;5012490;28;20053;-63
2021/09/15 01:18:18;;;;;;;14.63;13.13;;;;;;;;;;5014521;28;20398;-62
2021/09/15 01:20:43;;;;;;;17.92;13.93;;;;;;;;;;5014108;28;20026;-60
2021/09/15 01:23:08;;;;;;;16.17;13.95;;;;;;;;;;5013719;28;20481;-62
2021/09/15 01:25:34;;;;;;;17.60;13.43;;;;;;;;;;5015878;28;20160;-63
2021/09/15 01:27:59;;;;;;;15.68;13.65;;;;;;;;;;5016177;28;20477;-59
2021/09/15 01:30:24;;;;;;;15.98;13.45;;;;;;;;;;5014309;28;20068;-62
2021/09/15 01:32:49;;;;;;;15.20;13.40;;;;;;;;;;5011748;28;20120;-59
2021/09/15 01:35:15;;;;;;;15.15;13.65;;;;;;;;;;5012613;28;20064;-61
2021/09/15 01:37:40;;;;;;;15.07;13.57;;;;;;;;;;5013316;28;20026;-63
2021/09/15 01:40:05;;;;;;;14.80;13.32;;;;;;;;;;5013215;28;20052;-62
2021/09/15 01:42:31;;;;;;;14.70;13.27;;;;;;;;;;5010512;28;20033;-60
2021/09/15 01:44:56;;;;;;;14.90;13.30;;;;;;;;;;5012337;28;20070;-61
2021/09/15 01:47:22;;;;;;;16.42;13.40;;;;;;;;;;5013365;28;20060;-59
2021/09/15 01:49:47;;;;;;;15.70;14.10;;;;;;;;;;5013526;28;20017;-63
2021/09/15 01:52:14;;;;;;;15.13;13.15;;;;;;;;;;5013829;28;20128;-60
2021/09/15 01:54:39;;;;;;;15.60;14.10;;;;;;;;;;5014618;28;20088;-61
2021/09/15 01:57:05;;;;;;;14.77;13.35;;;;;;;;;;5013220;28;20022;-62
2021/09/15 01:59:30;;;;;;;14.82;13.23;;;;;;;;;;5014225;28;20417;-63
2021/09/15 02:01:56;;;;;;;18.15;15.18;;;;;;;;;;5012273;28;20026;-62
2021/09/15 02:04:21;;;;;;;15.10;13.60;;;;;;;;;;5013688;28;20021;-61
2021/09/15 02:06:46;;;;;;;15.93;13.35;;;;;;;;;;5014517;28;20376;-62
2021/09/15 02:09:11;;;;;;;14.80;13.15;;;;;;;;;;5014980;28;20018;-63
2021/09/15 02:11:37;;;;;;;15.18;13.57;;;;;;;;;;5012576;28;20054;-61
2021/09/15 02:14:03;;;;;;;14.25;12.85;;;;;;;;;;5014469;28;20589;-60
2021/09/15 02:16:28;;;;;;;16.05;13.98;;;;;;;;;;5011010;28;20022;-59
2021/09/15 02:18:53;;;;;;;15.95;14.18;;;;;;;;;;5012091;28;20493;-58
2021/09/15 02:21:19;;;;;;;16.40;14.05;;;;;;;;;;5016112;28;20200;-59
2021/09/15 02:23:44;;;;;;;14.52;13.02;;;;;;;;;;5015906;28;20026;-59
2021/09/15 02:26:10;;;;;;;15.75;14.13;;;;;;;;;;5014027;28;20113;-60
2021/09/15 02:28:36;;;;;;;15.45;13.27;;;;;;;;;;5013456;28;20434;-60
2021/09/15 02:31:01;;;;;;;15.23;13.68;;;;;;;;;;5012767;28;20072;-58
2021/09/15 02:33:26;;;;;;;15.13;13.63;;;;;;;;;;5013633;28;20044;-60
2021/09/15 02:35:52;;;;;;;17.55;14.25;;;;;;;;;;5012696;28;20112;-59
2021/09/15 02:38:17;;;;;;;15.52;13.90;;;;;;;;;;5013694;28;20040;-56
2021/09/15 02:40:42;;;;;;;16.17;14.52;;;;;;;;;;5013813;28;20529;-60
2021/09/15 02:43:08;;;;;;;14.73;13.13;;;;;;;;;;5012782;28;20124;-59
2021/09/15 02:45:33;;;;;;;18.33;14.00;;;;;;;;;;5010903;28;20065;-61
2021/09/15 02:47:58;;;;;;;18.10;14.25;;;;;;;;;;5012811;28;20018;-60
2021/09/15 02:50:24;;;;;;;15.05;13.48;;;;;;;;;;5013401;28;20088;-61
2021/09/15 02:52:49;;;;;;;18.48;14.05;;;;;;;;;;5014495;28;20017;-60
2021/09/15 02:55:15;;;;;;;15.07;13.50;;;;;;;;;;5013520;28;20026;-62
2021/09/15 02:57:41;;;;;;;15.77;14.25;;;;;;;;;;5012101;28;20116;-59
2021/09/15 03:00:06;;;;;;;15.68;14.07;;;;;;;;;;5012736;28;20134;-61
2021/09/15 03:02:32;;;;;;;14.82;13.32;;;;;;;;;;5011139;28;20152;-61
2021/09/15 03:04:57;;;;;;;15.13;13.40;;;;;;;;;;5012288;28;20047;-60
2021/09/15 03:07:22;;;;;;;14.27;12.75;;;;;;;;;;5016137;28;20022;-60
2021/09/15 03:09:48;;;;;;;14.65;13.15;;;;;;;;;;5013696;28;20470;-62
2021/09/15 03:12:13;;;;;;;15.85;13.50;;;;;;;;;;5012823;28;20023;-60
2021/09/15 03:14:38;;;;;;;15.98;13.57;;;;;;;;;;5012661;28;20026;-58
2021/09/15 03:17:03;;;;;;;15.15;13.55;;;;;;;;;;5013918;28;20500;-60
2021/09/15 03:19:29;;;;;;;14.50;12.98;;;;;;;;;;5012321;28;20061;-60
2021/09/15 03:21:54;;;;;;;17.58;15.50;;;;;;;;;;5013516;28;20027;-62
2021/09/15 03:24:19;;;;;;;17.83;13.82;;;;;;;;;;5013850;28;20546;-59
2021/09/15 03:26:44;;;;;;;16.83;14.70;;;;;;;;;;5013640;28;20030;-59
2021/09/15 03:29:10;;;;;;;15.93;14.23;;;;;;;;;;5012289;28;20075;-58
2021/09/15 03:31:35;;;;;;;18.55;13.13;;;;;;;;;;5010393;28;20022;-57
2021/09/15 03:34:00;;;;;;;16.35;14.05;;;;;;;;;;5011871;28;20094;-59
2021/09/15 03:36:26;;;;;;;19.05;13.02;;;;;;;;;;5015382;28;20120;-61
2021/09/15 03:38:51;;;;;;;15.02;13.20;;;;;;;;;;5011083;28;20018;-58
2021/09/15 03:41:16;;;;;;;16.33;13.57;;;;;;;;;;5012521;28;20065;-58
2021/09/15 03:43:41;;;;;;;16.83;15.07;;;;;;;;;;5011458;28;20034;-59
2021/09/15 03:46:07;;;;;;;15.93;14.32;;;;;;;;;;5010746;28;20028;-58
2021/09/15 03:48:32;;;;;;;16.02;13.73;;;;;;;;;;5013919;28;20018;-59
2021/09/15 03:50:57;;;;;;;16.20;14.15;;;;;;;;;;5012515;28;20085;-60
2021/09/15 03:53:22;;;;;;;18.35;14.65;;;;;;;;;;5013787;28;20024;-61
2021/09/15 03:55:48;;;;;;;16.95;14.48;;;;;;;;;;5008970;28;20323;-60
2021/09/15 03:58:13;;;;;;;14.95;13.35;;;;;;;;;;5010802;28;20021;-60
2021/09/15 04:00:38;;;;;;;16.80;14.95;;;;;;;;;;5013855;28;20088;-56
2021/09/15 04:03:03;;;;;;;16.65;14.68;;;;;;;;;;5016634;28;20018;-60
2021/09/15 04:05:29;;;;;;;15.93;13.85;;;;;;;;;;5015160;28;20026;-56
2021/09/15 04:07:54;;;;;;;17.65;14.63;;;;;;;;;;5015984;28;20410;-59
2021/09/15 04:10:19;;;;;;;15.68;13.18;;;;;;;;;;5015093;28;20026;-59
2021/09/15 04:12:45;;;;;;;17.95;14.18;;;;;;;;;;5014569;28;20100;-59
2021/09/15 04:15:10;;;;;;;16.45;14.65;;;;;;;;;;5016870;28;20034;-60
2021/09/15 04:17:35;;;;;;;16.77;14.93;;;;;;;;;;5015962;28;20399;-60
2021/09/15 04:20:01;;;;;;;17.55;14.80;;;;;;;;;;5017293;28;20039;-59
2021/09/15 04:22:26;;;;;;;18.30;15.05;;;;;;;;;;5016289;28;20049;-63
2021/09/15 04:32:56;;;;;;;17.65;14.30;;;;;;;;;;5014524;28;20543;-59
2021/09/15 04:35:21;;;;;;;15.82;13.77;;;;;;;;;;5013863;28;20049;-58
2021/09/15 04:37:46;;;;;;;17.63;14.10;;;;;;;;;;5014276;28;20041;-60
2021/09/15 04:40:12;;;;;;;18.42;15.00;;;;;;;;;;5013546;28;20026;-59
2021/09/15 04:42:37;;;;;;;16.85;14.35;;;;;;;;;;5013847;28;20592;-60
2021/09/15 04:45:02;;;;;;;16.50;14.65;;;;;;;;;;5014940;28;20112;-59
2021/09/15 04:47:28;;;;;;;15.88;14.00;;;;;;;;;;5016776;28;20433;-59
2021/09/15 04:49:53;;;;;;;17.52;14.63;;;;;;;;;;5017935;28;20025;-61
2021/09/15 04:52:18;;;;;;;16.33;13.80;;;;;;;;;;5014401;28;20030;-58
2021/09/15 04:54:43;;;;;;;14.95;12.32;;;;;;;;;;5014906;28;20584;-60
2021/09/15 04:57:09;;;;;;;15.68;13.48;;;;;;;;;;5016403;28;20025;-60
2021/09/15 04:59:34;;;;;;;16.05;14.00;;;;;;;;;;5014736;28;20113;-64
2021/09/15 05:01:59;;;;;;;17.17;14.50;;;;;;;;;;5015810;28;20021;-64
2021/09/15 05:04:24;;;;;;;16.58;14.65;;;;;;;;;;5014549;28;20116;-61
2021/09/15 05:06:52;;;;;;;16.40;13.90;;;;;;;;;;5015309;28;20064;-62
2021/09/15 05:09:17;;;;;;;17.60;14.13;;;;;;;;;;5013247;28;20133;-64
2021/09/15 05:11:43;;;;;;;16.98;14.70;;;;;;;;;;5015755;28;20052;-61
2021/09/15 05:14:08;;;;;;;18.40;14.73;;;;;;;;;;5015727;28;20013;-60
2021/09/15 05:16:33;;;;;;;17.77;15.27;;;;;;;;;;5012078;28;20405;-62
2021/09/15 05:18:59;;;;;;;16.35;13.63;;;;;;;;;;5015729;28;20025;-59
2021/09/15 05:21:24;;;;;;;16.45;14.65;;;;;;;;;;5013675;28;20463;-61
2021/09/15 05:23:49;;;;;;;18.45;15.10;;;;;;;;;;5013627;28;20462;-61
2021/09/15 05:26:14;;;;;;;15.18;13.52;;;;;;;;;;5015461;28;20026;-60
2021/09/15 05:28:40;;;;;;;18.30;14.20;;;;;;;;;;5013294;28;20025;-61
2021/09/15 05:31:05;;;;;;;15.57;12.80;;;;;;;;;;5013947;28;20037;-60
2021/09/15 05:33:30;;;;;;;16.33;12.55;;;;;;;;;;5015167;28;20021;-61
2021/09/15 05:35:55;;;;;;;15.68;13.77;;;;;;;;;;5013907;28;20050;-62
2021/09/15 05:38:21;;;;;;;16.85;13.38;;;;;;;;;;5013579;28;20485;-62
2021/09/15 05:40:46;;;;;;;16.00;13.60;;;;;;;;;;5012742;28;20029;-60
2021/09/15 05:43:11;;;;;;;14.82;12.77;;;;;;;;;;5012421;28;20152;-61
2021/09/15 05:45:37;;;;;;;13.77;11.35;;;;;;;;;;5014125;28;20476;-60
2021/09/15 05:48:02;;;;;;;15.73;13.80;;;;;;;;;;5014891;28;20036;-59
2021/09/15 05:50:27;;;;;;;16.83;13.73;;;;;;;;;;5011707;28;20021;-59
2021/09/15 05:52:52;;;;;;;14.77;13.27;;;;;;;;;;5013479;28;20096;-58
2021/09/15 05:55:18;;;;;;;14.55;12.75;;;;;;;;;;5013586;28;20018;-63
2021/09/15 05:57:43;;;;;;;14.32;12.15;;;;;;;;;;5012563;28;20365;-62
2021/09/15 06:00:08;;;;;;;14.02;12.55;;;;;;;;;;5015565;28;20037;-61
2021/09/15 06:02:34;;;;;;;14.77;12.70;;;;;;;;;;5011420;28;20055;-63
2021/09/15 06:04:59;;;;;;;14.30;12.45;;;;;;;;;;5015502;28;20033;-58
2021/09/15 06:07:24;;;;;;;14.35;12.32;;;;;;;;;;5013602;28;20436;-58
2021/09/15 06:09:50;;;;;;;17.40;15.60;;;;;;;;;;5011002;28;20033;-61
2021/09/15 06:12:15;;;;;;;20.08;18.02;;;;;;;;;;5014224;28;20029;-60
2021/09/15 06:14:40;;;;;;;16.63;15.02;;;;;;;;;;5013089;28;20044;-64
2021/09/15 06:17:06;;;;;;;19.25;17.30;;;;;;;;;;5020054;28;20481;-57
2021/09/15 06:19:32;;;;;;;20.60;17.08;;;;;;;;;;5014076;28;20013;-57
2021/09/15 06:21:57;;;;;;;24.80;17.30;;;;;;;;;;5013524;28;20485;-61
2021/09/15 06:24:22;;;;;;;20.40;17.90;;;;;;;;;;5013442;28;20022;-62
2021/09/15 06:26:48;;;;;;;19.83;16.55;;;;;;;;;;5011841;28;20114;-63
2021/09/15 06:29:14;;;;;;;18.40;16.17;;;;;;;;;;5012970;28;20108;-60
2021/09/15 06:31:41;;;;;;;18.38;16.50;;;;;;;;;;5010046;28;20442;-62
2021/09/15 06:34:06;;;;;;;18.75;15.82;;;;;;;;;;5012764;28;20070;-61
2021/09/15 06:36:31;;;;;;;18.55;16.55;;;;;;;;;;5011652;28;20038;-61
2021/09/15 06:38:56;;;;;;;23.90;17.58;;;;;;;;;;5011219;28;20018;-62
2021/09/15 06:41:22;;;;;;;19.20;17.05;;;;;;;;;;5011174;28;20453;-60
2021/09/15 06:43:47;;;;;;;21.20;17.45;;;;;;;;;;5014059;28;20029;-60
2021/09/15 06:46:12;;;;;;;22.75;16.85;;;;;;;;;;5013798;28;20030;-59
2021/09/15 06:48:38;;;;;;;20.33;16.23;;;;;;;;;;5012409;28;20026;-58
2021/09/15 06:51:03;;;;;;;23.02;17.52;;;;;;;;;;5012667;28;20022;-62
2021/09/15 06:53:28;;;;;;;24.60;17.88;;;;;;;;;;5013381;28;20014;-58
2021/09/15 06:55:53;;;;;;;18.77;16.88;;;;;;;;;;5013563;28;20057;-57
2021/09/15 06:58:18;;;;;;;19.52;16.27;;;;;;;;;;5013822;28;20049;-59
2021/09/15 07:00:44;;;;;;;20.45;15.38;;;;;;;;;;5015408;28;20018;-62
2021/09/15 07:03:09;;;;;;;18.90;15.68;;;;;;;;;;5012365;28;20029;-62
2021/09/15 07:05:36;;;;;;;17.92;15.93;;;;;;;;;;5011598;28;20030;-57
2021/09/15 07:08:02;;;;;;;19.45;15.77;;;;;;;;;;5009269;28;20042;-58
2021/09/15 07:10:28;;;;;;;19.58;16.38;;;;;;;;;;5029683;28;20445;-59
2021/09/15 07:12:54;;;;;;;19.63;16.40;;;;;;;;;;5035623;28;20363;-57
2021/09/15 07:15:19;;;;;;;18.05;15.13;;;;;;;;;;5031165;28;20105;-60
2021/09/15 07:17:44;;;;;;;21.48;16.15;;;;;;;;;;5030462;28;20176;-58
2021/09/15 07:20:11;;;;;;;24.58;16.55;;;;;;;;;;5032408;28;20033;-61
2021/09/15 07:22:36;;;;;;;23.13;15.88;;;;;;;;;;5031611;28;20042;-59
2021/09/15 07:25:01;;;;;;;17.67;14.77;;;;;;;;;;5034224;28;20375;-60
2021/09/15 07:27:27;;;;;;;17.25;15.02;;;;;;;;;;5032461;28;20045;-60
2021/09/15 07:29:52;;;;;;;16.30;14.48;;;;;;;;;;5030255;28;20040;-60
2021/09/15 07:32:17;;;;;;;21.80;15.68;;;;;;;;;;5033708;28;20551;-59
2021/09/15 07:34:45;;;;;;;15.43;13.82;;;;;;;;;;5033062;28;20073;-59
2021/09/15 07:37:13;;;;;;;19.75;14.63;;;;;;;;;;5034804;28;20434;-61
2021/09/15 07:39:38;;;;;;;17.40;15.57;;;;;;;;;;5034320;28;20036;-60
2021/09/15 07:42:04;;;;;;;15.63;13.65;;;;;;;;;;5034910;28;20065;-61
2021/09/15 07:44:29;;;;;;;15.50;13.50;;;;;;;;;;5035522;28;20028;-60
2021/09/15 07:46:54;;;;;;;18.02;14.30;;;;;;;;;;5034105;28;20481;-60
2021/09/15 07:49:20;;;;;;;19.13;16.08;;;;;;;;;;5033441;28;20037;-59
2021/09/15 07:51:45;;;;;;;17.45;14.15;;;;;;;;;;5035545;28;20482;-61
2021/09/15 07:54:10;;;;;;;15.20;13.65;;;;;;;;;;5034791;28;20103;-60
2021/09/15 07:56:36;;;;;;;15.98;13.95;;;;;;;;;;5034097;28;20487;-62
2021/09/15 07:59:01;;;;;;;19.67;13.27;;;;;;;;;;5035655;28;20481;-60
2021/09/15 08:01:26;;;;;;;17.52;13.68;;;;;;;;;;5037230;28;20101;-60
2021/09/15 08:03:52;;;;;;;14.95;13.43;;;;;;;;;;5034393;28;20024;-59
2021/09/15 08:06:18;;;;;;;14.90;13.40;;;;;;;;;;5035299;28;20069;-58
2021/09/15 08:08:43;;;;;;;15.48;12.50;;;;;;;;;;5036127;28;20243;-56
2021/09/15 08:11:08;;;;;;;16.58;12.00;;;;;;;;;;5034034;28;20466;-58
2021/09/15 08:13:33;;;;;;;15.95;12.68;;;;;;;;;;5034642;28;20025;-58
2021/09/15 08:15:58;;;;;;;16.63;12.40;;;;;;;;;;5036502;28;20040;-59
2021/09/15 08:18:24;;;;;;;18.08;14.48;;;;;;;;;;5032383;28;20025;-60
2021/09/15 08:20:49;;;;;;;12.88;11.57;;;;;;;;;;5038626;28;20026;-61
2021/09/15 08:23:17;;;;;;;16.30;13.48;;;;;;;;;;5038625;28;20053;-59
2021/09/15 08:25:42;;;;;;;15.95;13.00;;;;;;;;;;5032454;28;20041;-61
2021/09/15 08:28:08;;;;;;;15.82;13.60;;;;;;;;;;5033345;28;20554;-57
2021/09/15 08:30:33;;;;;;;15.48;13.20;;;;;;;;;;5034273;28;20073;-61
2021/09/15 08:32:58;;;;;;;13.85;11.60;;;;;;;;;;5033132;28;20040;-61
2021/09/15 08:35:24;;;;;;;13.18;11.80;;;;;;;;;;5034417;28;20053;-61
2021/09/15 08:37:49;;;;;;;16.85;13.57;;;;;;;;;;5035965;28;20069;-58
2021/09/15 08:40:14;;;;;;;12.50;11.30;;;;;;;;;;5034206;28;20056;-61
2021/09/15 08:42:40;;;;;;;14.77;13.02;;;;;;;;;;5034863;28;20029;-57
2021/09/15 08:45:07;;;;;;;17.40;13.70;;;;;;;;;;5032699;28;20470;-62
2021/09/15 08:47:33;;;;;;;16.70;14.75;;;;;;;;;;5034902;28;20394;-62
2021/09/15 08:49:58;;;;;;;15.65;13.23;;;;;;;;;;5035132;28;20027;-64
2021/09/15 08:52:23;;;;;;;14.63;12.95;;;;;;;;;;5034442;28;20034;-61
2021/09/15 08:54:49;;;;;;;18.30;14.50;;;;;;;;;;5033887;28;20127;-60
2021/09/15 08:57:14;;;;;;;17.30;14.05;;;;;;;;;;5034171;28;20029;-61
2021/09/15 08:59:39;;;;;;;18.25;13.13;;;;;;;;;;5034586;28;20017;-62
2021/09/15 09:02:08;;;;;;;16.90;13.80;;;;;;;;;;5035355;28;20364;-60
2021/09/15 09:04:48;;;;;;;22.33;14.40;;;;;;;;;;5033509;28;20120;-59
2021/09/15 09:07:13;;;;;;;15.98;14.20;;;;;;;;;;5034117;28;20029;-61
2021/09/15 09:09:45;;;;;;;18.17;15.30;;;;;;;;;;5035882;28;20036;-60
2021/09/15 09:12:11;;;;;;;15.77;14.18;;;;;;;;;;5034064;28;20033;-62
2021/09/15 09:14:36;;;;;;;16.25;14.05;;;;;;;;;;5034147;28;20025;-63
2021/09/15 09:17:01;;;;;;;19.30;15.02;;;;;;;;;;5033706;28;20469;-60
2021/09/15 09:19:28;;;;;;;20.05;15.10;;;;;;;;;;5034450;28;20029;-60
2021/09/15 09:21:54;;;;;;;19.48;15.55;;;;;;;;;;5033237;28;20053;-59
2021/09/15 09:24:23;;;;;;;23.40;14.27;;;;;;;;;;5034603;28;20100;-62
2021/09/15 09:26:55;;;;;;;13.73;12.40;;;;;;;;;;5034233;28;20021;-63
2021/09/15 09:29:25;;;;;;;20.90;14.75;;;;;;;;;;5034863;28;20424;-60
2021/09/15 09:31:56;;;;;;;18.27;13.95;;;;;;;;;;5035149;28;20457;-60
2021/09/15 09:34:24;;;;;;;16.75;15.00;;;;;;;;;;5033831;28;20456;-61
2021/09/15 09:37:00;;;;;;;16.00;14.45;;;;;;;;;;5035188;28;20024;-59
2021/09/15 09:39:35;;;;;;;18.08;13.75;;;;;;;;;;5033959;28;20470;-61
2021/09/15 09:42:00;;;;;;;17.02;15.15;;;;;;;;;;5033640;28;20363;-61
2021/09/15 09:44:26;;;;;;;17.73;15.20;;;;;;;;;;5035567;28;20078;-59
2021/09/15 09:46:52;;;;;;;20.88;15.88;;;;;;;;;;5035297;28;20033;-61
2021/09/15 09:49:17;;;;;;;20.52;16.00;;;;;;;;;;5035304;28;20090;-62
2021/09/15 09:51:42;;;;;;;13.73;12.25;;;;;;;;;;5032614;28;20353;-62
2021/09/15 09:54:28;;;;;;;17.27;14.45;;;;;;;;;;5034028;28;20385;-59
2021/09/15 09:56:54;;;;;;;16.02;13.77;;;;;;;;;;5032302;28;20080;-63
2021/09/15 09:59:20;;;;;;;17.55;14.00;;;;;;;;;;5034741;28;20032;-59
2021/09/15 10:01:47;;;;;;;15.25;13.85;;;;;;;;;;5033117;28;20347;-59
2021/09/15 10:04:16;;;;;;;15.50;13.88;;;;;;;;;;5031223;28;20034;-60
2021/09/15 10:06:43;;;;;;;12.93;11.70;;;;;;;;;;5032476;28;20061;-59
2021/09/15 10:09:08;;;;;;;15.10;12.73;;;;;;;;;;5032590;28;20025;-62
2021/09/15 10:11:34;;;;;;;15.82;14.13;;;;;;;;;;5031958;28;20032;-60
2021/09/15 10:14:00;;;;;;;16.50;13.63;;;;;;;;;;5033076;28;20108;-62
2021/09/15 10:16:26;;;;;;;19.92;14.60;;;;;;;;;;5032879;28;20044;-60
2021/09/15 10:18:57;;;;;;;16.52;14.88;;;;;;;;;;5034068;28;20025;-59
2021/09/15 10:21:24;;;;;;;18.30;12.40;;;;;;;;;;5032598;28;20366;-62
2021/09/15 10:23:50;;;;;;;14.65;13.32;;;;;;;;;;5034678;28;20021;-61
2021/09/15 10:26:35;;;;;;;14.60;13.30;;;;;;;;;;5032790;28;20103;-62
2021/09/15 10:29:19;;;;;;;14.88;13.32;;;;;;;;;;5030999;28;20033;-61
2021/09/15 10:31:48;;;;;;;13.45;12.23;;;;;;;;;;5031881;28;20087;-62
2021/09/15 10:34:33;;;;;;;16.40;14.63;;;;;;;;;;5032756;28;20098;-58
2021/09/15 10:36:58;;;;;;;15.00;13.35;;;;;;;;;;5032671;28;20033;-59
2021/09/15 10:39:24;;;;;;;14.40;12.95;;;;;;;;;;5040250;28;20033;-63
2021/09/15 10:41:49;;;;;;;14.60;12.75;;;;;;;;;;5055208;28;20017;-59
2021/09/15 10:44:15;;;;;;;13.98;12.50;;;;;;;;;;5034014;28;20030;-57
2021/09/15 10:46:42;;;;;;;13.23;11.70;;;;;;;;;;5032913;28;20029;-58
2021/09/15 10:49:18;;;;;;;15.20;13.60;;;;;;;;;;5033684;28;20025;-62
2021/09/15 10:51:43;;;;;;;14.57;13.18;;;;;;;;;;5034413;28;20021;-61
2021/09/15 10:54:27;;;;;;;16.90;13.18;;;;;;;;;;5032257;28;20028;-63
2021/09/15 10:57:11;;;;;;;16.95;12.90;;;;;;;;;;5033236;28;20389;-62
2021/09/15 10:59:46;;;;;;;14.68;13.02;;;;;;;;;;5032702;28;20476;-61
2021/09/15 11:02:11;;;;;;;;;;;;;;;;;;5033318;28;20021;-62
2021/09/15 11:04:36;;;;;;;12.32;11.07;;;;;;;;;;5032097;28;19940;-63
2021/09/15 11:07:02;;;;;;;17.63;12.57;;;;;;;;;;5032354;28;20092;-63
2021/09/15 11:09:37;;;;;;;13.85;11.98;;;;;;;;;;5037997;28;20029;-62
2021/09/15 11:12:03;;;;;;;13.23;12.02;;;;;;;;;;5038703;28;20022;-63
2021/09/15 11:14:48;;;;;;;14.88;12.00;;;;;;;;;;5039349;28;20103;-62
2021/09/15 11:17:15;;;;;;;15.90;11.45;;;;;;;;;;5035715;28;20397;-63
2021/09/15 11:19:41;;;;;;;14.65;12.48;;;;;;;;;;5035272;28;20059;-61
2021/09/15 11:22:06;;;;;;;12.82;11.27;;;;;;;;;;5035164;28;20025;-61
2021/09/15 11:24:32;;;;;;;12.57;11.35;;;;;;;;;;5033443;28;20529;-60
2021/09/15 11:27:07;;;;;;;12.73;11.23;;;;;;;;;;5035680;28;20037;-59
2021/09/15 11:29:32;;;;;;;;;;;;;;;;;;5037299;28;20056;-61
2021/09/15 11:31:57;;;;;;;11.13;10.10;;;;;;;;;;5035089;28;20044;-61
2021/09/15 11:34:23;;;;;;;13.45;10.13;;;;;;;;;;5035489;28;20810;-61
2021/09/15 11:36:49;;;;;;;11.35;10.35;;;;;;;;;;5036199;28;20364;-63
2021/09/15 11:39:16;;;;;;;16.58;11.75;;;;;;;;;;5034822;28;20122;-59
2021/09/15 11:41:41;;;;;;;15.52;11.70;;;;;;;;;;5035973;28;20091;-58
2021/09/15 11:44:06;;;;;;;12.30;11.20;;;;;;;;;;5035168;28;20026;-62
2021/09/15 11:46:33;;;;;;;17.95;10.55;;;;;;;;;;5034719;28;20424;-61
2021/09/15 11:48:59;;;;;;;12.95;10.65;;;;;;;;;;5036574;28;20066;-61
2021/09/15 11:51:25;;;;;;;12.68;10.25;;;;;;;;;;5036628;28;20029;-60
2021/09/15 11:56:42;;;;;;;11.48;10.02;;;;;;;;;;5036066;28;20098;-58
2021/09/15 11:59:08;;;;;;;12.32;11.10;;;;;;;;;;5036032;28;20107;-60
2021/09/15 12:01:35;;;;;;;19.75;10.73;;;;;;;;;;5037410;28;20090;-59
2021/09/15 12:04:02;;;;;;;14.85;9.68;;;;;;;;;;5035397;28;20971;-58
2021/09/15 12:06:28;;;;;;;13.60;9.20;;;;;;;;;;5032506;28;20037;-57
2021/09/15 12:08:55;;;;;;;12.38;10.50;;;;;;;;;;5036898;28;20036;-57
2021/09/15 12:11:21;;;;;;;12.57;9.27;;;;;;;;;;5035343;28;20052;-60
2021/09/15 12:13:51;;;;;;;10.65;9.63;;;;;;;;;;5036325;28;20136;-62
2021/09/15 12:16:27;;;;;;;10.52;9.40;;;;;;;;;;5035637;28;20037;-59
2021/09/15 12:18:52;;;;;;;9.90;9.00;;;;;;;;;;5035435;28;20025;-59
2021/09/15 12:21:20;;;;;;;12.23;9.77;;;;;;;;;;5034968;28;20525;-59
2021/09/15 12:23:45;;;;;;;10.15;8.45;;;;;;;;;;5036536;28;20397;-60
2021/09/15 12:26:11;;;;;;;10.30;8.73;;;;;;;;;;5035644;28;20030;-58
2021/09/15 12:28:36;;;;;;;15.77;10.65;;;;;;;;;;5037112;28;20030;-58
2021/09/15 12:31:03;;;;;;;11.90;10.63;;;;;;;;;;5034378;28;20026;-60
2021/09/15 12:33:30;;;;;;;17.02;10.90;;;;;;;;;;5035538;28;20112;-59
2021/09/15 12:36:11;;;;;;;11.80;10.57;;;;;;;;;;5033218;28;20115;-56
2021/09/15 12:38:51;;;;;;;14.18;11.43;;;;;;;;;;5035496;28;20029;-62
2021/09/15 12:41:17;;;;;;;12.60;10.45;;;;;;;;;;5032207;28;20503;-61
2021/09/15 12:43:43;;;;;;;13.98;10.52;;;;;;;;;;5034449;28;20021;-59
2021/09/15 12:46:40;;;;;;;12.23;10.82;;;;;;;;;;5033486;28;20021;-59
2021/09/15 12:49:06;;;;;;;11.10;10.10;;;;;;;;;;5007869;28;20034;-61
2021/09/15 12:51:31;;;;;;;12.48;10.88;;;;;;;;;;5032389;28;20038;-60
2021/09/15 12:53:56;;;;;;;14.95;10.63;;;;;;;;;;5035414;28;20484;-58
2021/09/15 12:56:23;;;;;;;10.82;9.88;;;;;;;;;;5033014;28;20213;-62
2021/09/15 12:58:49;;;;;;;11.88;10.68;;;;;;;;;;5036383;28;20033;-63
2021/09/15 13:01:18;;;;;;;11.07;9.98;;;;;;;;;;5034550;28;20041;-61
2021/09/15 13:03:44;;;;;;;11.20;10.00;;;;;;;;;;5036242;28;20032;-60
2021/09/15 13:06:13;;;;;;;11.10;10.00;;;;;;;;;;5034458;28;20533;-61
2021/09/15 13:08:52;;;;;;;12.57;11.45;;;;;;;;;;5033326;28;20014;-60
2021/09/15 13:11:17;;;;;;;10.85;10.05;;;;;;;;;;5033241;28;20022;-61
2021/09/15 13:13:43;;;;;;;11.75;9.95;;;;;;;;;;5034573;28;20029;-59
2021/09/15 13:16:08;;;;;;;11.95;10.77;;;;;;;;;;5034490;28;20094;-61
2021/09/15 13:18:34;;;;;;;13.50;10.82;;;;;;;;;;5034545;28;20033;-61
2021/09/15 13:20:59;;;;;;;13.35;11.20;;;;;;;;;;5030998;28;20065;-61
2021/09/15 13:23:24;;;;;;;11.68;10.32;;;;;;;;;;5032923;28;20024;-60
2021/09/15 13:25:50;;;;;;;12.65;11.55;;;;;;;;;;5035786;28;20050;-62
2021/09/15 13:28:15;;;;;;;11.52;10.73;;;;;;;;;;5032148;28;20779;-60
2021/09/15 13:30:40;;;;;;;13.85;10.60;;;;;;;;;;5033700;28;20064;-63
2021/09/15 13:33:06;;;;;;;12.10;10.18;;;;;;;;;;5034105;28;20039;-63
2021/09/15 13:35:31;;;;;;;10.77;9.77;;;;;;;;;;5034935;28;20060;-60
2021/09/15 13:37:56;;;;;;;13.52;11.63;;;;;;;;;;5032623;28;20025;-62
2021/09/15 13:40:22;;;;;;;11.70;10.68;;;;;;;;;;5034294;28;20031;-60
2021/09/15 13:42:47;;;;;;;11.18;10.15;;;;;;;;;;5037322;28;20033;-60
2021/09/15 13:45:13;;;;;;;10.85;9.85;;;;;;;;;;5036526;28;20124;-63
2021/09/15 13:47:43;;;;;;;11.68;10.55;;;;;;;;;;5036574;28;20040;-61
2021/09/15 13:50:08;;;;;;;25.17;12.70;;;;;;;;;;5038711;28;20025;-63
2021/09/15 13:52:34;;;;;;;10.93;9.85;;;;;;;;;;5033697;28;20102;-61
2021/09/15 13:54:59;;;;;;;12.70;11.55;;;;;;;;;;5034146;28;20053;-62
2021/09/15 13:57:26;;;;;;;11.40;10.15;;;;;;;;;;5036373;28;20068;-61
2021/09/15 13:59:52;;;;;;;11.05;9.98;;;;;;;;;;5034703;28;20052;-62
2021/09/15 14:02:17;;;;;;;13.93;10.77;;;;;;;;;;5035987;28;20025;-62
2021/09/15 14:04:42;;;;;;;12.75;11.55;;;;;;;;;;5034861;28;20029;-61
2021/09/15 14:07:07;;;;;;;11.85;10.70;;;;;;;;;;5034711;28;20036;-63
2021/09/15 14:09:33;;;;;;;12.30;11.27;;;;;;;;;;5032982;28;20115;-60
2021/09/15 14:11:58;;;;;;;12.48;10.95;;;;;;;;;;5033963;28;20021;-61
2021/09/15 14:14:23;;;;;;;11.35;10.38;;;;;;;;;;5035158;28;20033;-61
2021/09/15 14:16:49;;;;;;;15.75;11.80;;;;;;;;;;5032720;28;20028;-61
2021/09/15 14:19:14;;;;;;;17.60;11.85;;;;;;;;;;5034202;28;20039;-61
2021/09/15 14:21:39;;;;;;;12.70;11.60;;;;;;;;;;5033640;28;20029;-61
2021/09/15 14:24:05;;;;;;;11.77;10.63;;;;;;;;;;5031739;28;20052;-61